sensor_id;sensor_type;location;lat;lon;timestamp;pressure;altitude;pressure_sealevel;temperature;humidity
3832;BME280;12460;42.662;23.288;2023-11-19T00:04:03;94529.69;;;5.54;55.32
3832;BME280;12460;42.662;23.288;2023-11-19T00:19:06;94505.56;;;5.44;55.37
3832;BME280;12460;42.662;23.288;2023-11-19T00:34:10;94524.88;;;5.55;54.89
3832;BME280;12460;42.662;23.288;2023-11-19T00:49:12;94513.72;;;5.42;54.56
3832;BME280;12460;42.662;23.288;2023-11-19T01:04:14;94520.81;;;5.43;55.39
3832;BME280;12460;42.662;23.288;2023-11-19T01:19:16;94524.25;;;5.36;55.21
3832;BME280;12460;42.662;23.288;2023-11-19T01:34:19;94531.31;;;5.37;55.38
3832;BME280;12460;42.662;23.288;2023-11-19T01:49:21;94535.19;;;5.34;54.10
3832;BME280;12460;42.662;23.288;2023-11-19T02:04:23;94543.34;;;5.32;53.91
3832;BME280;12460;42.662;23.288;2023-11-19T02:19:25;94526.41;;;5.17;54.00
3832;BME280;12460;42.662;23.288;2023-11-19T02:34:27;94529.81;;;5.23;54.22
3832;BME280;12460;42.662;23.288;2023-11-19T02:49:29;94526.72;;;5.00;54.60
3832;BME280;12460;42.662;23.288;2023-11-19T03:04:31;94543.84;;;4.91;55.05
3832;BME280;12460;42.662;23.288;2023-11-19T03:19:32;94542.66;;;4.73;55.11
3832;BME280;12460;42.662;23.288;2023-11-19T03:34:34;94540.94;;;4.70;55.25
3832;BME280;12460;42.662;23.288;2023-11-19T03:49:36;94569.66;;;4.78;54.87
3832;BME280;12460;42.662;23.288;2023-11-19T04:04:38;94575.88;;;4.71;55.28
3832;BME280;12460;42.662;23.288;2023-11-19T04:19:40;94587.09;;;4.66;55.92
3832;BME280;12460;42.662;23.288;2023-11-19T04:34:43;94580.91;;;4.73;54.44
3832;BME280;12460;42.662;23.288;2023-11-19T04:49:45;94589.25;;;4.73;53.98
3832;BME280;12460;42.662;23.288;2023-11-19T05:04:47;94616.28;;;4.91;53.46
3832;BME280;12460;42.662;23.288;2023-11-19T05:19:50;94646.00;;;5.02;53.26
3832;BME280;12460;42.662;23.288;2023-11-19T05:34:52;94635.94;;;5.12;53.35
3832;BME280;12460;42.662;23.288;2023-11-19T05:49:54;94666.72;;;5.19;53.74
3832;BME280;12460;42.662;23.288;2023-11-19T06:04:56;94667.00;;;5.03;53.36
3832;BME280;12460;42.662;23.288;2023-11-19T06:19:58;94653.59;;;5.01;52.98
3832;BME280;12460;42.662;23.288;2023-11-19T06:35:00;94668.06;;;5.00;53.29
3832;BME280;12460;42.662;23.288;2023-11-19T06:50:01;94686.97;;;5.20;53.15
3832;BME280;12460;42.662;23.288;2023-11-19T07:05:07;94672.63;;;5.29;52.61
3832;BME280;12460;42.662;23.288;2023-11-19T07:20:10;94685.06;;;5.28;52.35
3832;BME280;12460;42.662;23.288;2023-11-19T07:35:15;94730.81;;;5.64;51.57
3832;BME280;12460;42.662;23.288;2023-11-19T07:50:20;94714.31;;;5.66;51.08
3832;BME280;12460;42.662;23.288;2023-11-19T08:05:22;94720.72;;;5.61;50.93
3832;BME280;12460;42.662;23.288;2023-11-19T08:20:26;94741.88;;;5.70;50.12
3832;BME280;12460;42.662;23.288;2023-11-19T08:35:28;94754.47;;;6.02;49.54
3832;BME280;12460;42.662;23.288;2023-11-19T08:50:30;94748.47;;;6.11;49.18
3832;BME280;12460;42.662;23.288;2023-11-19T09:05:32;94729.25;;;6.21;48.19
3832;BME280;12460;42.662;23.288;2023-11-19T09:20:34;94732.72;;;7.77;46.46
3832;BME280;12460;42.662;23.288;2023-11-19T09:35:40;94739.09;;;7.57;46.36
3832;BME280;12460;42.662;23.288;2023-11-19T09:50:42;94693.78;;;8.15;45.39
3832;BME280;12460;42.662;23.288;2023-11-19T10:05:44;94667.44;;;11.05;39.91
3832;BME280;12460;42.662;23.288;2023-11-19T10:20:46;94689.59;;;10.61;40.21
3832;BME280;12460;42.662;23.288;2023-11-19T10:51:02;94661.94;;;13.81;33.80
3832;BME280;12460;42.662;23.288;2023-11-19T11:06:08;94614.84;;;13.20;33.51
3832;BME280;12460;42.662;23.288;2023-11-19T11:21:13;94591.41;;;13.27;33.47
3832;BME280;12460;42.662;23.288;2023-11-19T11:36:21;94612.56;;;13.82;33.04
3832;BME280;12460;42.662;23.288;2023-11-19T11:52:00;94577.00;;;13.79;33.30
3832;BME280;12460;42.662;23.288;2023-11-19T12:07:09;94584.13;;;13.24;33.54
3832;BME280;12460;42.662;23.288;2023-11-19T12:22:14;94543.38;;;12.91;34.40
3832;BME280;12460;42.662;23.288;2023-11-19T12:37:16;94546.84;;;12.46;34.74
3832;BME280;12460;42.662;23.288;2023-11-19T12:52:18;94529.88;;;11.51;36.48
3832;BME280;12460;42.662;23.288;2023-11-19T13:07:21;94517.34;;;10.78;37.59
3832;BME280;12460;42.662;23.288;2023-11-19T13:22:23;94513.97;;;10.54;37.73
3832;BME280;12460;42.662;23.288;2023-11-19T13:37:25;94494.47;;;9.77;38.54
3832;BME280;12460;42.662;23.288;2023-11-19T13:52:27;94522.09;;;9.41;38.24
3832;BME280;12460;42.662;23.288;2023-11-19T14:07:29;94521.59;;;9.12;38.75
3832;BME280;12460;42.662;23.288;2023-11-19T14:22:30;94540.47;;;8.74;40.00
3832;BME280;12460;42.662;23.288;2023-11-19T14:37:33;94537.78;;;8.30;40.93
3832;BME280;12460;42.662;23.288;2023-11-19T14:52:35;94548.44;;;7.89;41.41
3832;BME280;12460;42.662;23.288;2023-11-19T15:07:38;94541.13;;;7.42;44.53
3832;BME280;12460;42.662;23.288;2023-11-19T15:22:41;94577.97;;;7.05;45.87
3832;BME280;12460;42.662;23.288;2023-11-19T15:37:44;94562.41;;;6.89;46.40
3832;BME280;12460;42.662;23.288;2023-11-19T15:52:46;94547.06;;;6.62;45.77
3832;BME280;12460;42.662;23.288;2023-11-19T16:07:49;94571.00;;;6.70;44.62
3832;BME280;12460;42.662;23.288;2023-11-19T16:22:51;94553.59;;;6.64;43.63
3832;BME280;12460;42.662;23.288;2023-11-19T16:37:53;94521.16;;;6.82;43.49
3832;BME280;12460;42.662;23.288;2023-11-19T16:52:55;94560.94;;;6.95;43.99
3832;BME280;12460;42.662;23.288;2023-11-19T17:07:57;94586.06;;;7.16;42.66
3832;BME280;12460;42.662;23.288;2023-11-19T17:22:59;94565.50;;;7.34;42.56
3832;BME280;12460;42.662;23.288;2023-11-19T17:38:02;94545.41;;;7.43;42.06
3832;BME280;12460;42.662;23.288;2023-11-19T17:53:05;94540.59;;;7.44;41.49
3832;BME280;12460;42.662;23.288;2023-11-19T18:08:08;94530.91;;;7.52;41.37
3832;BME280;12460;42.662;23.288;2023-11-19T18:23:13;94547.44;;;7.71;41.92
3832;BME280;12460;42.662;23.288;2023-11-19T18:38:15;94544.44;;;7.69;42.03
3832;BME280;12460;42.662;23.288;2023-11-19T18:53:18;94568.94;;;7.48;44.09
3832;BME280;12460;42.662;23.288;2023-11-19T19:08:23;94570.47;;;7.56;44.19
3832;BME280;12460;42.662;23.288;2023-11-19T19:23:25;94557.09;;;7.62;43.38
3832;BME280;12460;42.662;23.288;2023-11-19T19:38:26;94571.47;;;8.10;40.09
3832;BME280;12460;42.662;23.288;2023-11-19T19:53:28;94519.88;;;8.41;35.30
3832;BME280;12460;42.662;23.288;2023-11-19T20:08:31;94512.63;;;8.91;34.67
3832;BME280;12460;42.662;23.288;2023-11-19T20:23:33;94504.75;;;9.27;34.47
3832;BME280;12460;42.662;23.288;2023-11-19T20:38:35;94504.69;;;9.42;34.02
3832;BME280;12460;42.662;23.288;2023-11-19T20:53:38;94489.59;;;9.23;35.27
3832;BME280;12460;42.662;23.288;2023-11-19T21:08:40;94497.09;;;9.20;35.73
3832;BME280;12460;42.662;23.288;2023-11-19T21:23:42;94513.56;;;9.08;37.00
3832;BME280;12460;42.662;23.288;2023-11-19T21:38:44;94465.84;;;9.16;36.22
3832;BME280;12460;42.662;23.288;2023-11-19T21:53:46;94442.28;;;9.27;36.32
3832;BME280;12460;42.662;23.288;2023-11-19T22:08:48;94431.56;;;9.33;36.30
3832;BME280;12460;42.662;23.288;2023-11-19T22:23:49;94434.03;;;9.29;37.03
3832;BME280;12460;42.662;23.288;2023-11-19T22:38:51;94444.31;;;9.34;37.70
3832;BME280;12460;42.662;23.288;2023-11-19T22:53:53;94432.75;;;9.22;38.10
3832;BME280;12460;42.662;23.288;2023-11-19T23:08:58;94477.06;;;9.24;39.10
3832;BME280;12460;42.662;23.288;2023-11-19T23:23:59;94460.56;;;9.28;40.02
3832;BME280;12460;42.662;23.288;2023-11-19T23:39:01;94433.16;;;9.66;39.11
3832;BME280;12460;42.662;23.288;2023-11-19T23:54:03;94447.25;;;9.91;39.06
